Time;durP1;ratioP1;P1;durP2;ratioP2;P2;SDS_P1;SDS_P2;PMS_P1;PMS_P2;Temp;Humidity;BMP_temperature;BMP_pressure;BME280_temperature;BME280_humidity;BME280_pressure;Samples;Min_cycle;Max_cycle;Signal;HPM_P1;HPM_P2
2023/04/29 00:02:07;;;;;;;7.45;4.80;;;12.10;99.90;;;;;;5098212;28;20054;-69
2023/04/29 00:04:38;;;;;;;6.10;4.90;;;12.10;99.90;;;;;;5127155;28;20050;-69
2023/04/29 00:07:14;;;;;;;7.47;4.75;;;12.10;99.90;;;;;;5134591;28;20037;-68
2023/04/29 00:09:49;;;;;;;7.30;5.00;;;12.10;99.90;;;;;;5137118;28;20039;-68
2023/04/29 00:12:22;;;;;;;7.07;5.10;;;12.10;99.90;;;;;;5150719;28;20042;-69
2023/04/29 00:14:53;;;;;;;6.47;5.38;;;12.10;99.90;;;;;;5139991;28;20036;-69
2023/04/29 00:17:30;;;;;;;9.52;6.35;;;12.10;99.90;;;;;;5131760;28;20048;-67
2023/04/29 00:20:06;;;;;;;8.30;6.00;;;12.00;99.90;;;;;;5133566;28;20597;-69
2023/04/29 00:22:38;;;;;;;6.05;5.18;;;12.00;99.90;;;;;;5134474;28;20522;-67
2023/04/29 00:25:11;;;;;;;8.15;6.63;;;12.00;99.90;;;;;;5130737;28;20050;-69
2023/04/29 00:27:42;;;;;;;8.60;6.45;;;12.00;99.90;;;;;;5131012;28;20054;-69
2023/04/29 00:30:15;;;;;;;9.25;7.20;;;12.00;99.90;;;;;;5126812;28;20043;-70
2023/04/29 00:32:46;;;;;;;10.15;7.30;;;11.90;99.90;;;;;;5138081;28;20049;-66
2023/04/29 00:35:26;;;;;;;9.77;7.15;;;12.00;99.90;;;;;;5133439;28;20046;-69
2023/04/29 00:37:57;;;;;;;14.50;7.97;;;11.90;99.90;;;;;;5133928;28;20053;-67
2023/04/29 00:40:29;;;;;;;9.57;7.10;;;11.90;99.90;;;;;;5166715;28;20235;-68
2023/04/29 00:43:03;;;;;;;10.40;7.57;;;11.90;99.90;;;;;;5131495;28;20056;-68
2023/04/29 00:45:34;;;;;;;9.10;6.65;;;11.90;99.90;;;;;;5138302;28;20046;-70
2023/04/29 00:48:08;;;;;;;6.90;5.75;;;11.80;99.90;;;;;;5129434;28;20525;-68
2023/04/29 00:50:46;;;;;;;13.02;7.38;;;11.80;99.90;;;;;;5113292;28;20568;-68
2023/04/29 00:53:21;;;;;;;14.20;8.57;;;11.80;99.90;;;;;;5129666;28;20043;-68
2023/04/29 00:55:56;;;;;;;8.98;6.68;;;11.90;99.90;;;;;;5116508;28;20044;-68
2023/04/29 00:58:38;;;;;;;8.68;6.65;;;11.90;99.90;;;;;;5148254;28;20238;-69
2023/04/29 01:01:15;;;;;;;9.40;6.85;;;11.90;99.90;;;;;;5237264;23;20027;-66
2023/04/29 01:03:47;;;;;;;8.60;6.07;;;11.90;99.90;;;;;;5112370;28;20677;-68
2023/04/29 01:06:39;;;;;;;9.32;6.18;;;11.80;99.90;;;;;;5124617;28;20060;-67
2023/04/29 01:10:05;;;;;;;11.32;6.68;;;11.80;99.90;;;;;;5163153;28;20038;-67
2023/04/29 01:13:03;;;;;;;7.95;6.18;;;11.80;99.90;;;;;;5121789;28;20365;-67
2023/04/29 01:16:02;;;;;;;9.75;6.65;;;11.80;99.90;;;;;;5116505;28;20348;-69
2023/04/29 01:19:00;;;;;;;9.55;7.35;;;11.80;99.90;;;;;;5118616;28;20034;-72
2023/04/29 01:21:40;;;;;;;10.82;8.00;;;11.90;99.90;;;;;;5118046;28;20038;-68
2023/04/29 01:24:12;;;;;;;12.00;8.05;;;11.90;99.90;;;;;;5120820;28;20040;-70
2023/04/29 01:27:04;;;;;;;10.30;7.30;;;11.80;99.90;;;;;;5085020;28;20054;-71
2023/04/29 01:30:04;;;;;;;10.95;8.07;;;11.80;99.90;;;;;;5101428;28;20046;-70
2023/04/29 01:33:22;;;;;;;10.68;8.27;;;11.70;99.90;;;;;;5140011;28;20397;-69
2023/04/29 01:36:57;;;;;;;11.00;7.82;;;11.70;99.90;;;;;;5151723;28;20042;-69
2023/04/29 01:40:00;;;;;;;11.10;7.95;;;11.70;99.90;;;;;;5136142;28;20532;-67
2023/04/29 01:42:47;;;;;;;10.85;7.35;;;11.70;99.90;;;;;;5116872;28;20354;-69
2023/04/29 01:45:24;;;;;;;12.02;8.43;;;11.70;99.90;;;;;;5127990;28;20046;-68
2023/04/29 01:48:04;;;;;;;11.02;7.20;;;11.70;99.90;;;;;;5154458;28;20440;-65
2023/04/29 01:50:38;;;;;;;11.85;7.60;;;11.70;99.90;;;;;;5101605;28;20382;-67
2023/04/29 01:53:12;;;;;;;11.32;7.95;;;11.70;99.90;;;;;;5141356;28;20049;-68
2023/04/29 01:55:46;;;;;;;11.63;8.38;;;11.70;99.90;;;;;;5146584;28;20038;-66
2023/04/29 01:58:27;;;;;;;11.98;8.63;;;11.60;99.90;;;;;;5138446;28;20031;-70
2023/04/29 02:01:03;;;;;;;9.60;7.72;;;11.60;99.90;;;;;;5116936;28;20042;-66
2023/04/29 02:03:35;;;;;;;12.40;9.43;;;11.60;99.90;;;;;;5120549;28;20050;-69
2023/04/29 02:06:06;;;;;;;9.98;7.72;;;11.60;99.90;;;;;;5143618;28;20326;-67
2023/04/29 02:08:40;;;;;;;9.90;7.70;;;11.60;99.90;;;;;;5119795;28;20399;-68
2023/04/29 02:11:12;;;;;;;11.82;8.40;;;11.70;99.90;;;;;;5135454;28;20056;-68
2023/04/29 02:13:46;;;;;;;11.27;8.57;;;11.60;99.90;;;;;;5147445;28;20046;-67
2023/04/29 02:16:20;;;;;;;11.00;9.00;;;11.70;99.90;;;;;;5115593;28;20046;-67
2023/04/29 02:18:59;;;;;;;10.75;8.13;;;11.70;99.90;;;;;;5116072;28;20049;-67
2023/04/29 02:21:34;;;;;;;11.82;8.70;;;11.70;99.90;;;;;;5130739;28;20529;-70
2023/04/29 02:24:06;;;;;;;12.52;9.35;;;11.60;99.90;;;;;;5102325;28;20039;-69
2023/04/29 02:26:40;;;;;;;14.50;9.75;;;11.60;99.90;;;;;;5106442;28;20050;-71
2023/04/29 02:29:12;;;;;;;13.57;9.27;;;11.70;99.90;;;;;;5135733;28;20057;-67
2023/04/29 02:31:50;;;;;;;11.70;9.43;;;11.70;99.90;;;;;;5128709;28;20574;-68
2023/04/29 02:34:23;;;;;;;14.07;10.32;;;11.70;99.90;;;;;;5130690;28;20050;-67
2023/04/29 02:36:54;;;;;;;12.98;8.27;;;11.70;99.90;;;;;;5131318;28;20046;-66
2023/04/29 02:39:29;;;;;;;14.82;9.73;;;11.60;99.90;;;;;;5130845;28;20054;-66
2023/04/29 02:42:00;;;;;;;11.32;8.63;;;11.70;99.90;;;;;;5115583;28;20508;-69
2023/04/29 02:44:34;;;;;;;13.68;9.38;;;11.60;99.90;;;;;;5132077;28;20050;-67
2023/04/29 02:47:11;;;;;;;14.45;10.20;;;11.60;99.90;;;;;;5114094;28;20069;-67
2023/04/29 02:49:46;;;;;;;13.57;8.80;;;11.60;99.90;;;;;;5099408;28;20047;-70
2023/04/29 02:52:27;;;;;;;13.63;9.27;;;11.70;99.90;;;;;;5148693;28;20036;-68
2023/04/29 02:55:03;;;;;;;13.18;9.88;;;11.60;99.90;;;;;;5146961;28;20351;-70
2023/04/29 02:57:35;;;;;;;10.00;8.07;;;11.60;99.90;;;;;;5096974;28;20042;-67
2023/04/29 03:00:10;;;;;;;16.40;8.77;;;11.60;99.90;;;;;;5098107;28;20054;-65
2023/04/29 03:02:41;;;;;;;15.75;10.82;;;11.60;99.90;;;;;;5128916;28;20046;-69
2023/04/29 03:05:18;;;;;;;14.52;10.20;;;11.60;99.90;;;;;;5125797;28;20054;-68
2023/04/29 03:07:52;;;;;;;17.85;11.45;;;11.60;99.90;;;;;;5103816;28;20046;-66
2023/04/29 03:10:23;;;;;;;17.48;11.55;;;11.60;99.90;;;;;;5103794;28;20048;-68
2023/04/29 03:12:58;;;;;;;11.85;9.48;;;11.50;99.90;;;;;;5118955;28;20040;-67
2023/04/29 03:15:30;;;;;;;16.20;11.10;;;11.50;99.90;;;;;;5150841;28;20038;-68
2023/04/29 03:18:04;;;;;;;16.50;10.57;;;11.50;99.90;;;;;;5118592;28;20311;-67
2023/04/29 03:20:39;;;;;;;;;;;11.50;99.90;;;;;;5130203;28;20353;-67
2023/04/29 03:23:10;;;;;;;14.68;10.98;;;11.60;99.90;;;;;;5112530;28;19916;-67
2023/04/29 03:25:44;;;;;;;14.45;9.45;;;11.50;99.90;;;;;;5135751;28;20043;-70
2023/04/29 03:28:16;;;;;;;18.13;10.55;;;11.50;99.90;;;;;;5102827;28;20060;-68
2023/04/29 03:30:55;;;;;;;12.52;9.07;;;11.50;99.90;;;;;;5149657;28;20038;-69
2023/04/29 03:33:30;;;;;;;13.10;10.45;;;11.60;99.90;;;;;;5137311;28;20042;-68
2023/04/29 03:36:02;;;;;;;15.02;10.10;;;11.50;99.90;;;;;;5162088;28;20035;-69
2023/04/29 03:38:38;;;;;;;18.58;10.48;;;11.50;99.90;;;;;;5099195;28;20592;-69
2023/04/29 03:41:13;;;;;;;14.50;10.65;;;11.50;99.90;;;;;;5116142;28;20373;-69
2023/04/29 03:43:47;;;;;;;12.57;9.75;;;11.50;99.90;;;;;;5098762;28;20046;-69
2023/04/29 03:46:21;;;;;;;12.77;9.40;;;11.50;99.90;;;;;;5132371;28;20049;-68
2023/04/29 03:48:55;;;;;;;14.77;10.15;;;11.50;99.90;;;;;;5134219;28;20385;-65
2023/04/29 03:51:30;;;;;;;13.15;9.57;;;11.60;99.90;;;;;;5118431;28;20355;-68
2023/04/29 03:54:09;;;;;;;16.38;10.13;;;11.60;99.90;;;;;;5120490;28;20046;-69
2023/04/29 03:56:40;;;;;;;14.15;9.48;;;11.60;99.90;;;;;;5134844;28;20046;-68
2023/04/29 03:59:13;;;;;;;16.73;10.40;;;11.70;99.90;;;;;;5134153;28;20042;-68
2023/04/29 04:01:48;;;;;;;14.68;9.50;;;11.60;99.90;;;;;;5107944;28;20055;-67
2023/04/29 04:04:21;;;;;;;15.57;9.93;;;11.70;99.90;;;;;;5137669;28;20038;-68
2023/04/29 04:06:53;;;;;;;17.33;11.55;;;11.70;99.90;;;;;;5137688;28;20065;-71
2023/04/29 04:09:26;;;;;;;14.43;10.93;;;11.80;99.90;;;;;;5135084;28;20042;-70
2023/04/29 04:12:01;;;;;;;16.52;11.40;;;11.80;99.90;;;;;;5118413;28;20038;-71
2023/04/29 04:14:35;;;;;;;;;;;11.80;99.90;;;;;;5133838;28;20520;-65
2023/04/29 04:17:06;;;;;;;15.07;9.85;;;11.70;99.90;;;;;;5132982;28;19925;-67
2023/04/29 04:19:37;;;;;;;13.48;9.45;;;11.70;99.90;;;;;;5104063;28;20046;-68
2023/04/29 04:22:10;;;;;;;13.63;9.85;;;11.60;99.90;;;;;;5113896;28;20389;-64
2023/04/29 04:24:53;;;;;;;14.23;9.15;;;11.60;99.90;;;;;;5134993;28;20048;-69
2023/04/29 04:27:29;;;;;;;11.02;8.20;;;11.60;99.90;;;;;;5135166;28;20042;-69
2023/04/29 04:30:01;;;;;;;13.23;8.88;;;11.70;99.90;;;;;;5117803;28;20327;-68
2023/04/29 04:32:32;;;;;;;12.93;9.57;;;11.70;99.90;;;;;;5131871;28;20041;-67
2023/04/29 04:35:11;;;;;;;13.98;9.70;;;11.60;99.90;;;;;;5135036;28;20465;-69
2023/04/29 04:37:44;;;;;;;14.80;9.95;;;11.60;99.90;;;;;;5118208;28;20042;-67
2023/04/29 04:40:18;;;;;;;13.43;8.88;;;11.60;99.90;;;;;;5134146;28;20465;-69
2023/04/29 04:42:49;;;;;;;17.75;10.80;;;11.50;99.90;;;;;;5101441;28;20042;-66
2023/04/29 04:45:22;;;;;;;13.25;8.93;;;11.60;99.90;;;;;;5115627;28;20034;-66
2023/04/29 04:47:55;;;;;;;13.43;9.45;;;11.60;99.90;;;;;;5101867;28;20042;-68
2023/04/29 04:50:33;;;;;;;12.63;8.48;;;11.60;99.90;;;;;;5118487;28;20041;-68
2023/04/29 04:53:08;;;;;;;11.55;7.97;;;11.60;99.90;;;;;;5135085;28;20053;-68
2023/04/29 04:55:40;;;;;;;15.10;9.45;;;11.70;99.90;;;;;;5140075;28;20060;-66
2023/04/29 04:58:16;;;;;;;12.43;9.05;;;11.70;99.90;;;;;;5138245;28;20046;-66
2023/04/29 05:00:47;;;;;;;13.65;10.52;;;11.80;99.90;;;;;;5135594;28;20052;-68
2023/04/29 05:03:21;;;;;;;13.55;10.13;;;11.80;99.90;;;;;;5153205;28;20048;-69
2023/04/29 05:05:57;;;;;;;16.27;10.02;;;11.80;99.90;;;;;;5127586;28;20431;-67
2023/04/29 05:08:29;;;;;;;12.98;9.90;;;11.80;99.90;;;;;;5133114;28;20034;-67
2023/04/29 05:11:08;;;;;;;12.35;9.95;;;11.90;99.90;;;;;;5150025;28;20064;-67
2023/04/29 05:13:40;;;;;;;13.80;9.63;;;11.90;99.90;;;;;;5133759;28;20060;-68
2023/04/29 05:16:16;;;;;;;15.95;11.15;;;12.10;99.90;;;;;;5128025;28;20061;-66
2023/04/29 05:18:50;;;;;;;15.73;10.02;;;12.30;99.90;;;;;;5129524;28;20085;-70
2023/04/29 05:21:24;;;;;;;11.35;8.30;;;12.50;99.90;;;;;;5129476;28;20050;-67
2023/04/29 05:23:56;;;;;;;15.13;10.93;;;12.60;99.90;;;;;;5109794;29;20597;-68
2023/04/29 05:26:31;;;;;;;13.95;8.77;;;12.70;99.90;;;;;;5081447;28;20040;-66
2023/04/29 05:29:10;;;;;;;15.23;9.95;;;12.70;99.90;;;;;;5097634;28;20050;-67
2023/04/29 05:31:47;;;;;;;12.10;8.52;;;12.80;99.90;;;;;;5120065;28;20050;-65
2023/04/29 05:34:23;;;;;;;11.25;7.93;;;12.80;99.90;;;;;;5143050;28;20050;-66
2023/04/29 05:36:57;;;;;;;10.88;7.30;;;12.90;99.90;;;;;;5139486;28;20070;-64
2023/04/29 05:39:32;;;;;;;9.20;6.75;;;12.90;99.90;;;;;;5097708;28;20047;-68
2023/04/29 05:42:11;;;;;;;9.68;7.18;;;12.80;99.90;;;;;;5145109;28;20038;-68
2023/04/29 05:44:43;;;;;;;8.60;6.43;;;12.70;99.90;;;;;;5128261;28;20151;-67
2023/04/29 05:47:14;;;;;;;11.07;7.20;;;12.70;99.90;;;;;;5126212;28;20077;-69
2023/04/29 05:49:47;;;;;;;7.95;6.78;;;12.80;99.90;;;;;;5127126;28;20043;-67
2023/04/29 05:52:18;;;;;;;12.55;8.68;;;12.90;99.90;;;;;;5126968;28;20039;-68
2023/04/29 05:54:53;;;;;;;9.40;7.68;;;13.10;99.90;;;;;;5129444;28;20246;-68
2023/04/29 05:57:29;;;;;;;9.18;7.72;;;13.00;99.90;;;;;;5127344;28;20034;-68
2023/04/29 06:00:05;;;;;;;9.93;7.38;;;13.00;99.90;;;;;;5126904;28;20263;-67
2023/04/29 06:02:38;;;;;;;10.52;8.07;;;13.10;99.90;;;;;;5127817;28;20031;-71
2023/04/29 06:05:15;;;;;;;10.13;8.48;;;13.20;99.90;;;;;;5095296;28;20389;-65
2023/04/29 06:07:50;;;;;;;10.88;7.22;;;13.40;99.90;;;;;;5106311;28;20030;-68
2023/04/29 06:10:24;;;;;;;8.55;6.97;;;13.60;99.90;;;;;;5123072;28;20046;-68
2023/04/29 06:12:58;;;;;;;10.88;7.85;;;14.00;99.90;;;;;;5120819;28;20804;-66
2023/04/29 06:15:35;;;;;;;9.32;7.05;;;14.50;99.90;;;;;;5111010;28;20046;-68
2023/04/29 06:18:12;;;;;;;9.35;7.15;;;14.90;99.90;;;;;;5121474;28;20027;-67
2023/04/29 06:20:49;;;;;;;8.30;6.50;;;15.10;99.90;;;;;;5121976;28;20054;-69
2023/04/29 06:23:24;;;;;;;9.05;6.90;;;15.20;99.90;;;;;;5153967;28;20045;-64
2023/04/29 06:25:58;;;;;;;8.32;5.72;;;15.40;99.90;;;;;;5120556;28;20047;-67
2023/04/29 06:28:31;;;;;;;7.50;5.70;;;15.60;99.90;;;;;;5116761;28;20268;-65
2023/04/29 06:31:03;;;;;;;8.02;6.57;;;15.80;99.90;;;;;;5128749;28;20404;-69
2023/04/29 06:33:37;;;;;;;7.60;4.93;;;15.80;99.90;;;;;;5136764;28;20481;-67
2023/04/29 06:36:09;;;;;;;6.65;5.75;;;15.90;99.90;;;;;;5124826;28;20043;-67
2023/04/29 06:38:48;;;;;;;6.03;5.43;;;15.80;99.90;;;;;;5134189;28;20049;-71
2023/04/29 06:41:19;;;;;;;4.85;4.30;;;15.60;99.90;;;;;;5151124;28;20062;-67
2023/04/29 06:43:51;;;;;;;6.07;4.95;;;15.60;99.90;;;;;;5135577;28;20038;-69
2023/04/29 06:46:23;;;;;;;6.30;5.03;;;15.80;99.90;;;;;;5106681;28;20339;-68
2023/04/29 06:48:56;;;;;;;7.45;4.75;;;15.90;99.90;;;;;;5124337;28;20046;-69
2023/04/29 06:51:31;;;;;;;8.00;4.40;;;16.10;99.90;;;;;;5124471;28;20469;-69
2023/04/29 06:54:07;;;;;;;4.07;3.60;;;16.40;99.90;;;;;;5104954;28;20047;-70
2023/04/29 06:56:39;;;;;;;4.38;3.67;;;16.50;99.90;;;;;;5136956;28;20353;-69
2023/04/29 06:59:11;;;;;;;4.50;3.35;;;16.90;99.90;;;;;;5133132;28;20034;-68
2023/04/29 07:01:43;;;;;;;4.40;3.20;;;17.60;96.40;;;;;;5142891;28;20034;-67
2023/04/29 07:04:14;;;;;;;3.92;3.08;;;18.30;99.90;;;;;;5123611;28;20043;-69
2023/04/29 07:06:48;;;;;;;4.03;3.10;;;18.60;1.00;;;;;;5109436;28;20072;-71
2023/04/29 07:09:50;;;;;;;4.70;4.18;;;18.90;10.90;;;;;;5116317;28;20042;-67
2023/04/29 07:12:38;;;;;;;5.53;4.20;;;19.20;1.00;;;;;;5126109;28;20045;-69
2023/04/29 07:15:13;;;;;;;3.78;3.42;;;19.40;94.50;;;;;;5128452;28;20290;-70
2023/04/29 07:17:45;;;;;;;3.60;2.88;;;19.00;1.00;;;;;;5118362;28;20060;-70
2023/04/29 07:20:19;;;;;;;4.32;3.45;;;18.70;1.00;;;;;;5086811;28;20251;-67
2023/04/29 07:22:53;;;;;;;4.35;3.50;;;18.40;1.00;;;;;;5101429;28;20234;-70
2023/04/29 07:25:28;;;;;;;5.95;4.80;;;18.20;1.00;;;;;;5149223;28;20325;-69
2023/04/29 07:28:11;;;;;;;4.63;4.00;;;18.20;1.00;;;;;;5135143;28;20036;-71
2023/04/29 07:30:53;;;;;;;6.63;3.95;;;18.20;1.00;;;;;;5113273;28;20231;-67
2023/04/29 07:33:27;;;;;;;5.20;4.28;;;18.30;1.00;;;;;;5104792;28;20042;-65
2023/04/29 07:36:08;;;;;;;4.78;3.92;;;18.70;1.00;;;;;;5136543;28;20172;-66
2023/04/29 07:38:45;;;;;;;4.45;3.50;;;19.00;1.00;;;;;;5141126;28;20348;-68
2023/04/29 07:41:19;;;;;;;5.65;4.07;;;19.50;1.00;;;;;;5134409;28;20400;-69
2023/04/29 07:43:51;;;;;;;9.30;3.75;;;19.40;1.00;;;;;;5102517;28;20042;-69
2023/04/29 07:46:25;;;;;;;6.53;3.83;;;19.60;1.00;;;;;;5146053;28;20176;-65
2023/04/29 07:48:57;;;;;;;4.00;3.45;;;19.90;1.00;;;;;;5150264;28;20030;-65
2023/04/29 07:51:30;;;;;;;5.70;3.50;;;20.40;1.00;;;;;;5156896;28;20040;-69
2023/04/29 07:54:04;;;;;;;4.53;3.42;;;20.70;1.00;;;;;;5111376;28;20529;-69
2023/04/29 07:56:38;;;;;;;3.80;3.22;;;20.80;99.90;;;;;;5109775;28;20044;-69
2023/04/29 07:59:14;;;;;;;4.78;3.80;;;21.00;1.00;;;;;;5152606;28;20034;-71
2023/04/29 08:01:45;;;;;;;6.20;4.13;;;20.90;99.90;;;;;;5128857;28;20044;-69
2023/04/29 08:04:17;;;;;;;3.75;3.35;;;20.80;99.90;;;;;;5106984;28;20050;-70
2023/04/29 08:06:49;;;;;;;4.78;3.30;;;20.90;18.40;;;;;;5130380;28;20047;-68
2023/04/29 08:09:23;;;;;;;3.80;3.33;;;21.00;99.90;;;;;;5124598;28;20068;-67
2023/04/29 08:11:57;;;;;;;3.70;3.33;;;21.10;99.90;;;;;;5141747;28;20045;-67
2023/04/29 08:14:38;;;;;;;3.10;2.80;;;21.20;7.80;;;;;;5128340;28;20034;-67
2023/04/29 08:17:12;;;;;;;3.28;2.97;;;21.20;14.00;;;;;;5139909;28;20235;-70
2023/04/29 08:19:46;;;;;;;3.00;2.70;;;20.90;1.00;;;;;;5109344;28;20048;-69
2023/04/29 08:22:22;;;;;;;4.03;2.80;;;20.90;99.90;;;;;;5144298;28;20271;-67
2023/04/29 08:24:57;;;;;;;4.25;3.17;;;20.50;1.00;;;;;;5159096;28;20172;-65
2023/04/29 08:27:29;;;;;;;3.33;2.70;;;20.50;1.00;;;;;;5117405;28;20647;-65
2023/04/29 08:30:01;;;;;;;3.55;3.20;;;20.90;99.90;;;;;;5139771;28;20030;-69
2023/04/29 08:32:35;;;;;;;3.88;3.05;;;21.20;1.00;;;;;;5111113;28;20038;-69
2023/04/29 08:35:10;;;;;;;3.70;2.97;;;21.10;1.00;;;;;;5144570;28;20064;-70
2023/04/29 08:37:46;;;;;;;4.13;3.08;;;21.10;1.00;;;;;;5143535;28;20226;-69
2023/04/29 08:40:21;;;;;;;2.72;2.33;;;21.10;1.00;;;;;;5103987;28;20060;-69
2023/04/29 08:42:54;;;;;;;3.70;2.40;;;20.90;1.00;;;;;;5126477;28;20060;-70
2023/04/29 08:45:28;;;;;;;3.47;2.78;;;20.80;1.00;;;;;;5130841;28;20046;-67
2023/04/29 08:48:07;;;;;;;4.90;3.05;;;19.80;1.00;;;;;;5100400;28;20054;-68
2023/04/29 08:50:44;;;;;;;2.40;2.20;;;19.30;1.00;;;;;;5117645;28;20208;-72
2023/04/29 08:53:15;;;;;;;3.22;2.92;;;19.20;1.00;;;;;;5121923;28;20077;-70
2023/04/29 08:55:49;;;;;;;4.90;3.15;;;18.60;1.00;;;;;;5131994;28;20027;-70
2023/04/29 08:58:21;;;;;;;4.38;2.92;;;18.30;99.90;;;;;;5132404;28;20042;-71
2023/04/29 09:00:58;;;;;;;3.47;2.95;;;17.30;51.60;;;;;;5115112;28;20038;-67
2023/04/29 09:03:41;;;;;;;3.95;3.55;;;16.40;99.90;;;;;;5133450;28;20048;-71
2023/04/29 09:06:14;;;;;;;5.03;3.88;;;15.80;99.90;;;;;;5122856;28;20046;-70
2023/04/29 09:08:49;;;;;;;4.53;3.45;;;15.80;99.90;;;;;;5128940;28;20254;-71
2023/04/29 09:11:21;;;;;;;6.93;4.10;;;15.40;99.90;;;;;;5127543;28;20050;-77
2023/04/29 09:14:03;;;;;;;4.57;3.33;;;14.60;99.90;;;;;;5129867;28;20053;-69
2023/04/29 09:16:37;;;;;;;5.20;4.30;;;14.70;99.90;;;;;;5113938;28;20051;-76
2023/04/29 09:19:10;;;;;;;6.18;4.43;;;15.20;99.90;;;;;;5134806;28;20052;-68
2023/04/29 09:21:55;;;;;;;4.67;3.83;;;15.30;99.90;;;;;;5101528;28;20420;-67
2023/04/29 09:24:30;;;;;;;2.50;2.30;;;15.70;99.90;;;;;;5101086;28;20240;-69
2023/04/29 09:27:08;;;;;;;1.92;1.75;;;15.90;99.90;;;;;;5123429;28;20227;-70
2023/04/29 09:30:00;;;;;;;2.22;1.70;;;15.60;99.90;;;;;;5090204;29;20043;-73
2023/04/29 09:32:35;;;;;;;2.00;1.70;;;15.60;99.90;;;;;;5084039;29;20188;-70
2023/04/29 09:35:23;;;;;;;1.08;1.08;;;15.90;99.90;;;;;;5106465;28;20054;-73
2023/04/29 09:38:18;;;;;;;0.80;0.80;;;15.50;99.90;;;;;;5089330;29;20044;-73
2023/04/29 09:40:55;;;;;;;1.10;1.00;;;15.70;99.90;;;;;;5088491;29;20476;-70
2023/04/29 09:43:29;;;;;;;0.80;0.80;;;16.20;99.90;;;;;;5073915;29;20050;-71
2023/04/29 09:46:03;;;;;;;1.00;0.90;;;16.70;99.90;;;;;;5080883;29;20052;-72
2023/04/29 09:48:40;;;;;;;1.00;1.00;;;17.60;99.90;;;;;;5091175;29;20056;-69
2023/04/29 09:51:16;;;;;;;0.80;0.80;;;18.00;99.90;;;;;;5076764;29;20063;-70
2023/04/29 09:53:51;;;;;;;0.73;0.73;;;18.40;99.90;;;;;;5085751;29;20035;-71
2023/04/29 09:56:30;;;;;;;;;;;19.00;99.90;;;;;;5087294;29;20036;-69
2023/04/29 09:59:10;;;;;;;0.70;0.70;;;19.40;1.00;;;;;;5096188;29;19911;-71
2023/04/29 10:01:42;;;;;;;0.80;0.80;;;20.10;99.90;;;;;;5101236;29;20049;-71
2023/04/29 10:04:31;;;;;;;0.80;0.80;;;20.60;1.00;;;;;;5084689;29;20073;-70
2023/04/29 10:07:08;;;;;;;0.75;0.75;;;20.30;1.00;;;;;;5058070;29;20040;-69
2023/04/29 10:09:42;;;;;;;0.90;0.90;;;20.60;1.00;;;;;;5075837;29;20031;-70
2023/04/29 10:12:19;;;;;;;1.10;1.10;;;21.10;1.00;;;;;;5059574;29;20452;-71
2023/04/29 10:15:06;;;;;;;1.20;0.88;;;22.00;1.00;;;;;;5148565;28;20045;-68
2023/04/29 10:17:49;;;;;;;1.05;1.02;;;22.30;99.90;;;;;;5118798;28;20034;-73
2023/04/29 10:20:27;;;;;;;0.80;0.80;;;22.10;99.90;;;;;;5135839;28;20376;-71
2023/04/29 10:23:04;;;;;;;0.90;0.90;;;22.10;99.90;;;;;;5144673;28;20038;-70
2023/04/29 10:25:43;;;;;;;1.10;1.00;;;22.60;99.90;;;;;;5146881;28;20041;-70
2023/04/29 10:28:16;;;;;;;1.58;1.48;;;24.10;99.90;;;;;;5116716;28;20503;-74
2023/04/29 10:30:51;;;;;;;1.15;0.90;;;24.90;99.90;;;;;;5108532;28;20049;-70
2023/04/29 10:33:22;;;;;;;0.85;0.80;;;24.90;99.90;;;;;;5143864;28;20034;-71
2023/04/29 10:35:57;;;;;;;0.70;0.70;;;24.70;99.90;;;;;;5143412;28;20026;-71
2023/04/29 10:38:39;;;;;;;;;;;25.30;99.90;;;;;;5125190;28;20034;-69
2023/04/29 10:41:27;;;;;;;0.70;0.70;;;24.30;99.90;;;;;;5140376;28;19930;-66
2023/04/29 10:44:03;;;;;;;2.05;0.82;;;22.40;99.90;;;;;;5142902;28;20377;-68
2023/04/29 10:46:36;;;;;;;0.75;0.75;;;21.50;99.90;;;;;;5107779;28;20429;-69
2023/04/29 10:49:15;;;;;;;1.25;0.90;;;21.50;99.90;;;;;;5144071;28;20045;-68
2023/04/29 10:51:46;;;;;;;1.20;1.10;;;22.30;99.90;;;;;;5111129;28;20038;-69
2023/04/29 10:54:24;;;;;;;0.90;0.80;;;23.30;99.90;;;;;;5138474;28;20053;-68
2023/04/29 10:56:56;;;;;;;0.80;0.80;;;24.00;99.90;;;;;;5127322;28;20046;-66
2023/04/29 10:59:27;;;;;;;0.93;0.93;;;25.10;99.90;;;;;;5142032;28;20037;-71
2023/04/29 11:01:59;;;;;;;0.80;0.80;;;25.40;99.90;;;;;;5156662;28;20046;-67
2023/04/29 11:04:53;;;;;;;0.88;0.88;;;24.70;99.90;;;;;;5129947;28;20062;-64
2023/04/29 11:07:33;;;;;;;0.70;0.70;;;23.60;99.90;;;;;;5104554;28;20050;-70
2023/04/29 11:10:09;;;;;;;1.05;0.95;;;22.90;99.90;;;;;;5095491;28;20047;-69
2023/04/29 11:12:43;;;;;;;1.70;0.90;;;22.80;99.90;;;;;;5115734;28;20041;-68
2023/04/29 11:15:19;;;;;;;0.88;0.88;;;22.40;99.90;;;;;;5081224;28;20341;-69
2023/04/29 11:17:51;;;;;;;2.03;0.93;;;22.40;99.90;;;;;;5132233;28;20041;-72
2023/04/29 11:20:22;;;;;;;1.00;1.00;;;22.60;99.90;;;;;;5112447;28;20042;-72
2023/04/29 11:22:54;;;;;;;1.40;1.27;;;23.20;99.90;;;;;;5083403;28;20485;-70
2023/04/29 11:25:27;;;;;;;1.45;0.80;;;23.40;99.90;;;;;;5098316;28;20057;-69
2023/04/29 11:28:02;;;;;;;0.90;0.90;;;24.40;99.90;;;;;;5112429;28;20050;-70
2023/04/29 11:30:35;;;;;;;1.23;1.00;;;24.30;99.90;;;;;;5111763;28;20050;-67
2023/04/29 11:33:13;;;;;;;0.98;0.88;;;24.60;99.90;;;;;;5132621;28;20038;-69
2023/04/29 11:35:46;;;;;;;4.75;1.10;;;26.10;99.90;;;;;;5115818;28;20149;-68
2023/04/29 11:38:20;;;;;;;1.25;0.80;;;27.60;99.90;;;;;;5115644;28;20225;-71
2023/04/29 11:40:51;;;;;;;0.85;0.80;;;28.70;99.90;;;;;;5113059;28;20031;-72
2023/04/29 11:43:24;;;;;;;1.17;0.95;;;29.20;99.90;;;;;;5108312;28;20039;-73
2023/04/29 11:45:58;;;;;;;0.75;0.75;;;28.10;99.90;;;;;;5075495;28;20047;-68
2023/04/29 11:48:29;;;;;;;;;;;28.20;99.90;;;;;;5111542;28;20033;-70
2023/04/29 11:51:01;;;;;;;0.80;0.80;;;26.80;99.90;;;;;;5127539;28;19917;-70
2023/04/29 11:53:39;;;;;;;0.85;0.85;;;26.70;99.90;;;;;;5113875;28;20027;-70
2023/04/29 11:56:11;;;;;;;0.73;0.73;;;28.30;99.90;;;;;;5123904;28;20043;-65
2023/04/29 11:58:43;;;;;;;0.70;0.70;;;27.80;99.90;;;;;;5094137;28;20459;-68
2023/04/29 12:01:15;;;;;;;0.75;0.75;;;26.40;99.90;;;;;;5127756;28;20033;-71
2023/04/29 12:03:52;;;;;;;0.82;0.82;;;25.80;99.90;;;;;;5081940;28;20054;-70
2023/04/29 12:06:28;;;;;;;0.82;0.80;;;24.90;99.90;;;;;;5100863;28;20060;-67
2023/04/29 12:09:00;;;;;;;2.10;1.13;;;23.80;99.90;;;;;;5097102;28;20523;-67
2023/04/29 12:11:32;;;;;;;1.10;1.00;;;23.10;99.90;;;;;;5111931;28;20045;-67
2023/04/29 12:14:05;;;;;;;0.90;0.70;;;22.60;99.90;;;;;;5132314;28;20050;-70
2023/04/29 12:16:36;;;;;;;1.05;0.90;;;22.20;99.90;;;;;;5128400;28;20031;-68
2023/04/29 12:19:09;;;;;;;0.90;0.90;;;22.20;99.90;;;;;;5127008;28;20050;-68
2023/04/29 12:21:51;;;;;;;1.00;1.00;;;22.20;99.90;;;;;;5104970;28;20062;-69
2023/04/29 12:24:27;;;;;;;1.73;1.20;;;21.90;99.90;;;;;;5112836;28;20041;-68
2023/04/29 12:27:00;;;;;;;1.40;1.30;;;21.20;99.90;;;;;;5099480;28;20773;-68
2023/04/29 12:29:34;;;;;;;1.77;1.23;;;20.80;99.90;;;;;;5108853;28;20046;-70
2023/04/29 12:32:12;;;;;;;1.13;1.02;;;20.30;99.90;;;;;;5121429;28;20050;-72
2023/04/29 12:34:46;;;;;;;1.80;1.70;;;19.80;99.90;;;;;;5141916;28;20377;-67
2023/04/29 12:37:18;;;;;;;;;;;19.80;99.90;;;;;;5126274;28;20050;-65
2023/04/29 12:39:49;;;;;;;2.05;1.67;;;19.80;99.90;;;;;;5157499;28;19910;-69
2023/04/29 12:42:21;;;;;;;4.00;1.90;;;19.70;99.90;;;;;;5159019;28;20053;-68
2023/04/29 12:44:52;;;;;;;2.17;1.98;;;19.50;99.90;;;;;;5140498;28;20393;-68
2023/04/29 12:47:35;;;;;;;1.90;1.70;;;19.50;99.90;;;;;;5136592;28;20507;-71
2023/04/29 12:50:10;;;;;;;1.67;1.58;;;19.50;99.90;;;;;;5126398;28;20050;-67
2023/04/29 12:52:42;;;;;;;1.48;1.38;;;19.60;99.90;;;;;;5128461;28;20034;-67
2023/04/29 12:55:13;;;;;;;2.42;1.98;;;19.60;99.90;;;;;;5123773;28;20049;-69
2023/04/29 12:57:47;;;;;;;1.77;1.67;;;19.40;99.90;;;;;;5127984;28;20031;-65
2023/04/29 13:00:21;;;;;;;2.30;1.80;;;19.20;99.90;;;;;;5124399;28;20052;-67
2023/04/29 13:02:53;;;;;;;2.00;1.88;;;19.10;99.90;;;;;;5125123;28;20062;-69
2023/04/29 13:05:25;;;;;;;1.83;1.73;;;18.70;99.90;;;;;;5136679;28;20071;-70
2023/04/29 13:07:56;;;;;;;3.80;2.03;;;17.60;99.90;;;;;;5130149;28;20035;-69
2023/04/29 13:10:28;;;;;;;1.95;1.85;;;17.10;99.90;;;;;;5126336;28;20042;-67
2023/04/29 13:13:00;;;;;;;1.92;1.70;;;16.90;99.90;;;;;;5126889;28;20043;-66
2023/04/29 13:15:32;;;;;;;2.55;2.00;;;16.60;99.90;;;;;;5139594;28;20035;-67
2023/04/29 13:18:04;;;;;;;1.40;1.30;;;16.20;99.90;;;;;;5126530;28;20047;-69
2023/04/29 13:20:35;;;;;;;2.03;1.70;;;16.00;99.90;;;;;;5092408;28;20053;-68
2023/04/29 13:23:07;;;;;;;1.60;1.50;;;15.90;99.90;;;;;;5131164;28;20023;-64
2023/04/29 13:25:38;;;;;;;1.90;1.80;;;16.10;99.90;;;;;;5127406;28;20049;-69
2023/04/29 13:28:13;;;;;;;2.50;2.30;;;16.30;99.90;;;;;;5162599;28;20408;-69
2023/04/29 13:30:47;;;;;;;2.80;2.35;;;16.20;99.90;;;;;;5128540;28;20041;-69